createdAt,value
2023-05-03T00:00:58.115Z,12.49
2023-05-03T00:03:31.012Z,12.46
2023-05-03T00:06:15.496Z,12.43
2023-05-03T00:08:55.103Z,12.40
2023-05-03T00:11:34.632Z,12.40
2023-05-03T00:14:17.442Z,12.42
2023-05-03T00:16:53.677Z,12.41
2023-05-03T00:19:35.753Z,12.41
2023-05-03T00:22:14.222Z,12.40
2023-05-03T00:24:44.448Z,12.39
2023-05-03T00:27:14.658Z,12.40
2023-05-03T00:29:45.308Z,12.36
2023-05-03T00:32:28.241Z,12.32
2023-05-03T00:35:00.661Z,12.26
2023-05-03T00:37:32.663Z,12.20
2023-05-03T00:40:08.700Z,12.16
2023-05-03T00:43:01.262Z,12.14
2023-05-03T00:45:46.849Z,12.09
2023-05-03T00:48:22.295Z,12.01
2023-05-03T00:50:54.750Z,12.01
2023-05-03T00:53:50.461Z,12.02
2023-05-03T00:56:37.830Z,11.99
2023-05-03T00:59:17.240Z,11.97
2023-05-03T01:01:53.977Z,11.96
2023-05-03T01:04:24.572Z,11.91
2023-05-03T01:07:04.909Z,11.83
2023-05-03T01:09:43.710Z,11.67
2023-05-03T01:12:44.654Z,11.62
2023-05-03T01:15:39.568Z,11.58
2023-05-03T01:18:25.041Z,11.53
2023-05-03T01:21:03.441Z,11.52
2023-05-03T01:24:05.430Z,11.51
2023-05-03T01:26:42.479Z,11.52
2023-05-03T01:29:18.246Z,11.52
2023-05-03T01:32:07.687Z,11.53
2023-05-03T01:35:08.562Z,11.52
2023-05-03T01:37:43.485Z,11.49
2023-05-03T01:40:53.129Z,11.52
2023-05-03T01:43:18.851Z,11.51
2023-05-03T01:45:53.791Z,11.51
2023-05-03T01:48:40.160Z,11.49
2023-05-03T01:51:15.635Z,11.43
2023-05-03T01:53:52.387Z,11.42
2023-05-03T01:56:29.693Z,11.41
2023-05-03T01:59:00.226Z,11.39
2023-05-03T02:01:39.518Z,11.37
2023-05-03T02:04:12.044Z,11.31
2023-05-03T02:06:45.135Z,11.26
2023-05-03T02:09:17.173Z,11.25
2023-05-03T02:11:49.966Z,11.25
2023-05-03T02:14:30.226Z,11.24
2023-05-03T02:17:05.409Z,11.21
2023-05-03T02:19:41.528Z,11.17
2023-05-03T02:22:16.754Z,11.16
2023-05-03T02:24:48.107Z,11.15
2023-05-03T02:27:22.625Z,11.14
2023-05-03T02:29:53.776Z,11.12
2023-05-03T02:32:26.290Z,11.08
2023-05-03T02:34:56.770Z,11.04
2023-05-03T02:37:33.452Z,10.95
2023-05-03T02:40:10.125Z,10.97
2023-05-03T02:42:47.497Z,10.95
2023-05-03T02:45:20.889Z,10.95
2023-05-03T02:47:55.462Z,10.92
2023-05-03T02:50:30.049Z,10.89
2023-05-03T02:53:04.877Z,10.88
2023-05-03T02:55:45.136Z,10.86
2023-05-03T02:58:16.167Z,10.84
2023-05-03T03:00:49.976Z,10.79
2023-05-03T03:03:24.367Z,10.75
2023-05-03T03:09:00.571Z,10.66
2023-05-03T03:11:40.227Z,10.65
2023-05-03T03:14:13.771Z,10.64
2023-05-03T03:16:48.219Z,10.61
2023-05-03T03:19:23.576Z,10.63
2023-05-03T03:21:57.380Z,10.67
2023-05-03T03:24:33.537Z,10.64
2023-05-03T03:27:18.403Z,10.61
2023-05-03T03:29:53.847Z,10.59
2023-05-03T03:32:31.117Z,10.58
2023-05-03T03:35:10.882Z,10.57
2023-05-03T03:37:50.101Z,10.58
2023-05-03T03:40:22.788Z,10.55
2023-05-03T03:42:55.991Z,10.50
2023-05-03T03:45:30.092Z,10.46
2023-05-03T03:48:05.963Z,10.38
2023-05-03T03:50:48.667Z,10.31
2023-05-03T03:53:18.982Z,10.27
2023-05-03T03:55:55.657Z,10.27
2023-05-03T03:58:30.498Z,10.27
2023-05-03T04:01:03.493Z,10.26
2023-05-03T04:03:35.824Z,10.23
2023-05-03T04:06:08.127Z,10.21
2023-05-03T04:08:50.616Z,10.21
2023-05-03T04:11:27.718Z,10.22
2023-05-03T04:14:02.112Z,10.12
2023-05-03T04:16:35.340Z,10.13
2023-05-03T04:19:10.356Z,10.19
2023-05-03T04:21:48.967Z,10.34
2023-05-03T04:24:22.566Z,10.44
2023-05-03T04:27:01.906Z,10.51
2023-05-03T04:29:41.030Z,10.55
2023-05-03T04:32:16.388Z,10.59
2023-05-03T04:34:54.034Z,10.66
2023-05-03T04:37:26.125Z,10.68
2023-05-03T04:40:05.302Z,10.72
2023-05-03T04:42:39.976Z,10.75
2023-05-03T04:45:15.401Z,10.76
2023-05-03T04:47:53.590Z,10.79
2023-05-03T04:50:30.535Z,10.87
2023-05-03T04:53:01.968Z,10.97
2023-05-03T04:55:33.931Z,11.18
2023-05-03T04:58:06.407Z,11.46
2023-05-03T05:00:37.964Z,11.66
2023-05-03T05:03:22.388Z,11.83
2023-05-03T05:05:53.348Z,11.97
2023-05-03T05:08:28.330Z,12.04
2023-05-03T05:11:17.139Z,12.14
2023-05-03T05:13:54.226Z,12.31
2023-05-03T05:16:34.348Z,12.36
2023-05-03T05:19:08.284Z,12.41
2023-05-03T05:21:49.098Z,12.38
2023-05-03T05:24:23.019Z,12.45
2023-05-03T05:26:59.458Z,12.56
2023-05-03T05:29:34.803Z,12.71
2023-05-03T05:32:13.758Z,12.92
2023-05-03T05:34:59.020Z,13.09
2023-05-03T05:37:36.521Z,13.18
2023-05-03T05:40:17.795Z,13.21
2023-05-03T05:42:59.354Z,13.34
2023-05-03T05:45:35.112Z,13.58
2023-05-03T05:48:07.041Z,13.86
2023-05-03T05:50:39.253Z,14.34
2023-05-03T05:53:13.165Z,14.76
2023-05-03T05:55:48.369Z,15.13
2023-05-03T05:58:22.700Z,15.64
2023-05-03T06:01:05.858Z,16.22
2023-05-03T06:03:42.100Z,16.81
2023-05-03T06:06:15.700Z,17.07
2023-05-03T06:08:51.774Z,17.21
2023-05-03T06:11:49.780Z,17.18
2023-05-03T06:14:46.246Z,16.93
2023-05-03T06:17:40.569Z,16.91
2023-05-03T06:20:39.047Z,17.01
2023-05-03T06:23:21.039Z,16.97
2023-05-03T06:26:13.803Z,16.83
2023-05-03T06:28:55.378Z,16.69
2023-05-03T06:31:32.181Z,16.41
2023-05-03T06:34:12.461Z,16.26
2023-05-03T06:36:56.029Z,16.09
2023-05-03T06:39:28.819Z,15.97
2023-05-03T06:42:18.864Z,15.90
2023-05-03T06:44:54.462Z,15.94
2023-05-03T06:47:29.918Z,16.14
2023-05-03T06:50:16.611Z,16.47
2023-05-03T06:55:50.018Z,16.75
2023-05-03T06:58:22.609Z,17.28
2023-05-03T07:00:59.587Z,17.83
2023-05-03T07:03:48.613Z,18.25
2023-05-03T07:06:25.295Z,18.63
2023-05-03T07:08:58.099Z,18.87
2023-05-03T07:11:37.136Z,19.15
2023-05-03T07:14:07.837Z,19.28
2023-05-03T07:16:38.533Z,19.46
2023-05-03T07:19:16.507Z,19.40
2023-05-03T07:22:04.020Z,18.94
2023-05-03T07:24:38.080Z,18.33
2023-05-03T07:27:17.878Z,18.33
2023-05-03T07:29:57.825Z,18.64
2023-05-03T07:32:28.621Z,18.46
2023-05-03T07:35:02.002Z,18.22
2023-05-03T07:37:56.033Z,18.32
2023-05-03T07:40:48.022Z,18.78
2023-05-03T07:43:34.241Z,19.49
2023-05-03T07:46:29.368Z,20.24
2023-05-03T07:49:46.244Z,20.13
2023-05-03T07:53:32.393Z,19.63
2023-05-03T07:56:47.014Z,19.37
2023-05-03T08:02:57.768Z,19.61
2023-05-03T08:05:31.088Z,20.07
2023-05-03T08:08:12.143Z,20.21
2023-05-03T08:10:50.957Z,19.66
2023-05-03T08:13:28.734Z,19.14
2023-05-03T08:16:06.484Z,18.66
2023-05-03T08:18:47.307Z,18.15
2023-05-03T08:22:44.456Z,17.79
2023-05-03T08:25:20.832Z,17.46
2023-05-03T08:27:57.041Z,17.39
2023-05-03T08:30:33.145Z,17.33
2023-05-03T08:33:12.738Z,17.34
2023-05-03T08:36:00.301Z,17.37
2023-05-03T08:38:51.530Z,17.47
2023-05-03T08:41:45.469Z,17.83
2023-05-03T08:44:27.635Z,18.13
2023-05-03T08:47:25.193Z,18.15
2023-05-03T08:50:28.976Z,18.01
2023-05-03T08:53:12.739Z,17.98
2023-05-03T08:56:03.757Z,17.94
2023-05-03T08:59:20.017Z,17.60
2023-05-03T09:03:21.530Z,17.36
2023-05-03T09:05:57.601Z,17.17
2023-05-03T09:08:52.749Z,17.29
2023-05-03T09:11:32.974Z,17.10
2023-05-03T09:14:22.257Z,17.03
2023-05-03T09:16:57.383Z,17.09
2023-05-03T09:19:28.807Z,17.01
2023-05-03T09:22:08.708Z,16.91
2023-05-03T09:24:55.904Z,16.86
2023-05-03T09:27:37.934Z,16.85
2023-05-03T09:30:22.651Z,16.87
2023-05-03T09:33:04.858Z,16.95
2023-05-03T09:35:37.413Z,17.01
2023-05-03T09:38:31.758Z,16.94
2023-05-03T09:41:14.546Z,16.97
2023-05-03T09:43:56.204Z,17.23
2023-05-03T09:46:33.574Z,18.15
2023-05-03T09:49:05.946Z,19.29
2023-05-03T09:51:41.994Z,20.00
2023-05-03T09:54:20.881Z,20.57
2023-05-03T09:57:12.321Z,20.68
2023-05-03T09:59:51.450Z,20.31
2023-05-03T10:02:24.730Z,19.70
2023-05-03T10:05:12.036Z,19.11
2023-05-03T10:07:52.295Z,18.78
2023-05-03T10:10:25.532Z,18.45
2023-05-03T10:13:04.352Z,18.35
2023-05-03T10:15:47.173Z,18.63
2023-05-03T10:18:25.869Z,19.71
2023-05-03T10:21:19.618Z,20.76
2023-05-03T10:24:20.941Z,20.76
2023-05-03T10:26:59.023Z,20.34
2023-05-03T10:29:35.355Z,19.99
2023-05-03T10:32:34.422Z,19.57
2023-05-03T10:38:18.069Z,18.81
2023-05-03T10:41:04.241Z,18.74
2023-05-03T10:43:40.326Z,18.72
2023-05-03T10:46:35.390Z,18.71
2023-05-03T10:49:23.910Z,18.45
2023-05-03T10:51:59.190Z,18.32
2023-05-03T10:54:30.101Z,18.35
2023-05-03T10:57:03.892Z,18.51
2023-05-03T11:03:23.839Z,18.37
2023-05-03T11:05:54.825Z,18.09
2023-05-03T11:08:31.458Z,17.91
2023-05-03T11:11:07.928Z,17.74
2023-05-03T11:13:39.636Z,17.54
2023-05-03T11:16:16.307Z,17.34
2023-05-03T11:19:03.155Z,17.23
2023-05-03T11:21:45.755Z,17.03
2023-05-03T11:24:20.138Z,16.82
2023-05-03T11:26:58.752Z,16.73
2023-05-03T11:29:33.235Z,16.71
2023-05-03T11:32:03.145Z,16.79
2023-05-03T11:34:34.486Z,16.91
2023-05-03T11:37:10.083Z,17.08
2023-05-03T11:39:43.515Z,17.05
2023-05-03T11:42:13.881Z,16.84
2023-05-03T11:44:46.873Z,16.68
2023-05-03T11:47:17.783Z,16.67
2023-05-03T11:50:03.487Z,16.79
2023-05-03T11:52:38.038Z,16.87
2023-05-03T11:55:15.235Z,16.90
2023-05-03T11:57:48.161Z,16.82
2023-05-03T12:00:23.010Z,16.74
2023-05-03T12:02:53.569Z,16.66
2023-05-03T12:05:27.113Z,16.69
2023-05-03T12:08:01.279Z,16.77
2023-05-03T12:10:35.631Z,16.70
2023-05-03T12:13:13.593Z,16.61
2023-05-03T12:16:10.737Z,16.54
2023-05-03T12:18:55.978Z,16.42
2023-05-03T12:21:54.264Z,16.34
2023-05-03T12:24:29.009Z,16.33
2023-05-03T12:27:08.445Z,16.34
2023-05-03T12:30:02.127Z,16.42
2023-05-03T12:32:39.991Z,16.49
2023-05-03T12:35:14.123Z,16.57
2023-05-03T12:37:55.733Z,16.59
2023-05-03T12:40:35.576Z,16.63
2023-05-03T12:43:05.905Z,16.69
2023-05-03T12:45:40.225Z,16.73
2023-05-03T12:48:15.300Z,16.75
2023-05-03T12:53:55.067Z,16.84
2023-05-03T12:56:32.805Z,16.84
2023-05-03T12:59:31.801Z,16.76
2023-05-03T13:02:57.966Z,16.67
2023-05-03T13:04:59.589Z,16.75
2023-05-03T13:07:32.694Z,16.79
2023-05-03T13:10:31.078Z,16.83
2023-05-03T13:13:26.593Z,16.80
2023-05-03T13:16:33.886Z,16.87
2023-05-03T13:19:06.720Z,16.89
2023-05-03T13:21:44.848Z,16.96
2023-05-03T13:24:16.115Z,17.02
2023-05-03T13:26:52.330Z,16.94
2023-05-03T13:29:26.043Z,16.81
2023-05-03T13:31:57.104Z,16.63
2023-05-03T13:34:33.309Z,16.47
2023-05-03T13:37:08.439Z,16.29
2023-05-03T13:39:41.699Z,16.13
2023-05-03T13:42:19.563Z,16.07
2023-05-03T13:48:14.854Z,15.99
2023-05-03T13:50:51.351Z,16.00
2023-05-03T13:53:36.323Z,16.04
2023-05-03T13:56:11.878Z,16.08
2023-05-03T13:58:57.857Z,16.16
2023-05-03T14:01:41.614Z,16.26
2023-05-03T14:04:18.182Z,16.29
2023-05-03T14:07:05.282Z,16.32
2023-05-03T14:13:00.267Z,16.54
2023-05-03T14:15:51.157Z,16.60
2023-05-03T14:18:27.322Z,16.62
2023-05-03T14:21:14.060Z,16.67
2023-05-03T14:23:50.550Z,16.70
2023-05-03T14:26:30.490Z,16.75
2023-05-03T14:29:02.719Z,16.82
2023-05-03T14:32:46.558Z,16.78
2023-05-03T14:35:22.833Z,16.72
2023-05-03T14:37:57.722Z,16.72
2023-05-03T14:41:56.276Z,16.79
2023-05-03T14:44:53.394Z,16.77
2023-05-03T14:48:32.234Z,16.70
2023-05-03T14:51:00.922Z,16.67
2023-05-03T14:53:48.583Z,16.64
2023-05-03T14:57:01.609Z,16.59
2023-05-03T14:59:39.017Z,16.59
2023-05-03T15:05:15.509Z,16.43
2023-05-03T15:07:46.623Z,16.33
2023-05-03T15:10:20.520Z,16.27
2023-05-03T15:15:39.717Z,16.03
2023-05-03T15:20:55.205Z,15.96
2023-05-03T15:23:46.107Z,15.90
2023-05-03T15:26:17.596Z,15.79
2023-05-03T15:28:50.134Z,15.73
2023-05-03T15:31:21.318Z,15.72
2023-05-03T15:33:59.226Z,15.74
2023-05-03T15:36:34.724Z,15.76
2023-05-03T15:39:05.965Z,15.73
2023-05-03T15:41:37.315Z,15.73
2023-05-03T15:44:11.019Z,15.76
2023-05-03T15:46:45.150Z,15.78
2023-05-03T15:49:16.994Z,15.78
2023-05-03T15:51:47.529Z,15.80
2023-05-03T15:54:21.623Z,15.67
2023-05-03T15:56:53.906Z,15.68
2023-05-03T15:59:57.488Z,15.69
2023-05-03T16:02:32.142Z,15.67
2023-05-03T16:08:32.395Z,15.68
2023-05-03T16:11:02.871Z,15.69
2023-05-03T16:13:45.576Z,15.69
2023-05-03T16:16:44.915Z,15.70
2023-05-03T16:20:42.445Z,15.68
2023-05-03T16:33:31.671Z,15.51
2023-05-03T16:36:43.270Z,15.46
2023-05-03T16:42:50.069Z,15.41
2023-05-03T16:46:10.771Z,15.34
2023-05-03T16:48:52.432Z,15.30
2023-05-03T16:51:50.628Z,15.23
2023-05-03T16:54:36.821Z,15.13
2023-05-03T17:00:13.740Z,15.05
2023-05-03T17:02:56.698Z,15.04
2023-05-03T17:05:45.536Z,15.00
2023-05-03T17:08:25.851Z,14.96
2023-05-03T17:12:10.459Z,14.95
2023-05-03T17:15:43.923Z,14.87
2023-05-03T17:18:19.810Z,14.83
2023-05-03T17:21:04.161Z,14.83
2023-05-03T17:23:39.941Z,14.79
2023-05-03T17:26:17.625Z,14.74
2023-05-03T17:28:58.666Z,14.69
2023-05-03T17:31:37.301Z,14.62
2023-05-03T17:34:09.476Z,14.54
2023-05-03T17:37:01.509Z,14.46
2023-05-03T17:39:37.657Z,14.42
2023-05-03T17:42:16.457Z,14.39
2023-05-03T17:45:21.335Z,14.33
2023-05-03T17:49:15.070Z,14.22
2023-05-03T17:52:37.012Z,14.11
2023-05-03T17:56:07.462Z,14.06
2023-05-03T17:58:47.172Z,13.98
2023-05-03T18:04:54.936Z,13.84
2023-05-03T18:07:32.421Z,13.81
2023-05-03T18:10:49.319Z,13.77
2023-05-03T18:13:27.234Z,13.67
2023-05-03T18:16:14.267Z,13.62
2023-05-03T18:19:10.574Z,13.55
2023-05-03T18:21:52.169Z,13.48
2023-05-03T18:28:43.521Z,13.25
2023-05-03T18:36:13.246Z,13.17
2023-05-03T18:38:53.708Z,13.03
2023-05-03T18:41:56.805Z,12.92
2023-05-03T18:44:49.036Z,12.76
2023-05-03T18:47:42.352Z,12.65
2023-05-03T18:50:51.223Z,12.52
2023-05-03T18:54:07.126Z,12.41
2023-05-03T18:57:24.995Z,12.32
2023-05-03T19:00:42.954Z,12.10
2023-05-03T19:03:54.300Z,12.05
2023-05-03T19:07:12.040Z,11.99
2023-05-03T19:09:57.471Z,11.86
2023-05-03T19:13:02.858Z,11.79
2023-05-03T19:15:59.204Z,11.71
2023-05-03T19:18:35.452Z,11.65
2023-05-03T19:21:45.688Z,11.56
2023-05-03T19:24:45.100Z,11.48
2023-05-03T19:30:15.464Z,11.39
2023-05-03T19:33:03.141Z,11.33
2023-05-03T19:35:42.804Z,11.28
2023-05-03T19:38:34.328Z,11.24
2023-05-03T19:41:20.428Z,11.20
2023-05-03T19:44:08.584Z,11.13
2023-05-03T19:46:43.850Z,11.09
2023-05-03T19:49:44.052Z,11.05
2023-05-03T19:52:51.922Z,11.02
2023-05-03T19:55:21.706Z,10.98
2023-05-03T19:57:54.677Z,10.94
2023-05-03T20:00:54.921Z,10.90
2023-05-03T20:03:52.508Z,10.79
2023-05-03T20:06:41.988Z,10.68
2023-05-03T20:09:38.453Z,10.59
2023-05-03T20:12:23.317Z,10.48
2023-05-03T20:14:53.521Z,10.41
2023-05-03T20:17:41.491Z,10.37
2023-05-03T20:20:46.381Z,10.29
2023-05-03T20:23:19.476Z,10.18
2023-05-03T20:26:06.612Z,10.09
2023-05-03T20:28:42.148Z,10.06
2023-05-03T20:31:11.900Z,9.99
2023-05-03T20:34:18.262Z,9.91
2023-05-03T20:38:05.143Z,9.75
2023-05-03T20:41:26.982Z,9.61
2023-05-03T20:43:56.062Z,9.51
2023-05-03T20:46:26.976Z,9.46
2023-05-03T20:48:58.452Z,9.36
2023-05-03T20:51:36.236Z,9.31
2023-05-03T20:54:09.363Z,9.25
2023-05-03T20:56:38.464Z,9.19
2023-05-03T20:59:07.320Z,9.15
2023-05-03T21:01:45.856Z,9.11
2023-05-03T21:04:29.755Z,9.05
2023-05-03T21:07:33.351Z,8.96
2023-05-03T21:10:43.584Z,8.89
2023-05-03T21:13:44.574Z,8.79
2023-05-03T21:16:44.829Z,8.71
2023-05-03T21:19:40.648Z,8.65
2023-05-03T21:29:00.357Z,8.47
2023-05-03T21:32:16.048Z,8.45
2023-05-03T21:35:04.236Z,8.43
2023-05-03T21:37:38.602Z,8.41
2023-05-03T21:41:05.356Z,8.38
2023-05-03T21:44:03.940Z,8.26
2023-05-03T21:46:52.473Z,8.21
2023-05-03T21:49:42.368Z,8.16
2023-05-03T21:53:03.055Z,8.10
2023-05-03T21:55:47.519Z,8.04
2023-05-03T21:58:50.410Z,7.96
2023-05-03T22:01:26.588Z,7.92
2023-05-03T22:03:55.707Z,7.91
2023-05-03T22:06:24.471Z,7.92
2023-05-03T22:08:54.662Z,7.91
2023-05-03T22:11:26.623Z,7.88
2023-05-03T22:14:07.483Z,7.81
2023-05-03T22:16:51.240Z,7.75
2023-05-03T22:19:22.999Z,7.70
2023-05-03T22:21:56.895Z,7.65
2023-05-03T22:24:42.965Z,7.60
2023-05-03T22:27:17.210Z,7.55
2023-05-03T22:29:46.432Z,7.52
2023-05-03T22:32:18.872Z,7.51
2023-05-03T22:34:48.274Z,7.49
2023-05-03T22:37:19.746Z,7.49
2023-05-03T22:39:49.256Z,7.48
2023-05-03T22:42:21.142Z,7.45
2023-05-03T22:44:54.840Z,7.41
2023-05-03T22:47:25.060Z,7.36
2023-05-03T22:49:54.934Z,7.33
2023-05-03T22:52:24.129Z,7.29
2023-05-03T22:55:11.663Z,7.22
2023-05-03T22:57:43.315Z,7.19
2023-05-03T23:00:13.646Z,7.24
2023-05-03T23:02:44.043Z,7.27
2023-05-03T23:05:13.580Z,7.25
2023-05-03T23:07:47.087Z,7.24
2023-05-03T23:10:20.682Z,7.23
2023-05-03T23:12:50.241Z,7.22
2023-05-03T23:15:19.774Z,7.18
2023-05-03T23:17:48.930Z,7.14
2023-05-03T23:20:22.589Z,7.09
2023-05-03T23:22:51.878Z,7.04
2023-05-03T23:25:22.416Z,7.00
2023-05-03T23:27:51.801Z,6.97
2023-05-03T23:30:22.644Z,6.94
2023-05-03T23:32:53.467Z,6.92
2023-05-03T23:35:23.802Z,6.81
2023-05-03T23:37:56.796Z,6.79
2023-05-03T23:40:30.999Z,6.79
2023-05-03T23:42:59.907Z,6.78
2023-05-03T23:45:29.204Z,6.76
2023-05-03T23:47:58.142Z,6.74
2023-05-03T23:50:30.556Z,6.68
2023-05-03T23:52:59.446Z,6.64
2023-05-03T23:55:28.840Z,6.60
2023-05-03T23:57:57.836Z,6.57
